sensor_id;sensor_type;location;lat;lon;timestamp;temperature;humidity
51902;DHT22;37929;53.218;6.548;2023-05-01T00:00:13;9.60;99.90
51902;DHT22;37929;53.218;6.548;2023-05-01T00:02:38;9.60;99.90
51902;DHT22;37929;53.218;6.548;2023-05-01T00:05:05;9.60;99.90
51902;DHT22;37929;53.218;6.548;2023-05-01T00:07:32;9.60;99.90
51902;DHT22;37929;53.218;6.548;2023-05-01T00:09:58;9.60;99.90
51902;DHT22;37929;53.218;6.548;2023-05-01T00:12:23;10.00;99.90
51902;DHT22;37929;53.218;6.548;2023-05-01T00:14:49;9.60;99.90
51902;DHT22;37929;53.218;6.548;2023-05-01T00:17:15;9.60;99.90
51902;DHT22;37929;53.218;6.548;2023-05-01T00:19:41;9.60;99.90
51902;DHT22;37929;53.218;6.548;2023-05-01T00:22:07;9.60;99.90
51902;DHT22;37929;53.218;6.548;2023-05-01T00:24:33;9.50;99.90
51902;DHT22;37929;53.218;6.548;2023-05-01T00:26:58;9.60;99.90
51902;DHT22;37929;53.218;6.548;2023-05-01T00:29:24;9.50;99.90
51902;DHT22;37929;53.218;6.548;2023-05-01T00:31:50;9.50;99.90
51902;DHT22;37929;53.218;6.548;2023-05-01T00:34:16;9.50;99.90
51902;DHT22;37929;53.218;6.548;2023-05-01T00:36:42;9.50;99.90
51902;DHT22;37929;53.218;6.548;2023-05-01T00:39:08;9.50;99.90
51902;DHT22;37929;53.218;6.548;2023-05-01T00:41:34;9.50;99.90
51902;DHT22;37929;53.218;6.548;2023-05-01T00:44:00;9.50;99.90
51902;DHT22;37929;53.218;6.548;2023-05-01T00:46:29;9.50;99.90
51902;DHT22;37929;53.218;6.548;2023-05-01T00:48:57;9.40;99.90
51902;DHT22;37929;53.218;6.548;2023-05-01T00:51:23;9.40;99.90
51902;DHT22;37929;53.218;6.548;2023-05-01T00:53:50;9.40;99.90
51902;DHT22;37929;53.218;6.548;2023-05-01T00:56:17;9.30;99.90
51902;DHT22;37929;53.218;6.548;2023-05-01T00:58:45;9.40;99.90
51902;DHT22;37929;53.218;6.548;2023-05-01T01:01:12;9.30;99.90
51902;DHT22;37929;53.218;6.548;2023-05-01T01:03:39;9.40;99.90
51902;DHT22;37929;53.218;6.548;2023-05-01T01:09:00;9.40;99.90
51902;DHT22;37929;53.218;6.548;2023-05-01T01:11:42;9.30;99.90
51902;DHT22;37929;53.218;6.548;2023-05-01T01:14:18;9.30;99.90
51902;DHT22;37929;53.218;6.548;2023-05-01T01:17:22;9.30;99.90
51902;DHT22;37929;53.218;6.548;2023-05-01T01:22:11;9.30;99.90
51902;DHT22;37929;53.218;6.548;2023-05-01T01:30:14;9.20;99.90
51902;DHT22;37929;53.218;6.548;2023-05-01T01:33:16;9.20;99.90
51902;DHT22;37929;53.218;6.548;2023-05-01T01:35:55;9.30;99.90
51902;DHT22;37929;53.218;6.548;2023-05-01T01:38:37;9.20;99.90
51902;DHT22;37929;53.218;6.548;2023-05-01T01:43:36;9.20;99.90
51902;DHT22;37929;53.218;6.548;2023-05-01T01:46:05;9.20;99.90
51902;DHT22;37929;53.218;6.548;2023-05-01T01:48:38;9.20;99.90
51902;DHT22;37929;53.218;6.548;2023-05-01T01:51:09;9.40;99.90
51902;DHT22;37929;53.218;6.548;2023-05-01T01:53:38;9.20;99.90
51902;DHT22;37929;53.218;6.548;2023-05-01T01:56:06;9.20;99.90
51902;DHT22;37929;53.218;6.548;2023-05-01T01:58:35;9.20;99.90
51902;DHT22;37929;53.218;6.548;2023-05-01T02:01:03;9.20;99.90
51902;DHT22;37929;53.218;6.548;2023-05-01T02:03:31;9.20;99.90
51902;DHT22;37929;53.218;6.548;2023-05-01T02:05:58;9.10;99.90
51902;DHT22;37929;53.218;6.548;2023-05-01T02:08:28;9.10;99.90
51902;DHT22;37929;53.218;6.548;2023-05-01T02:10:55;9.10;99.90
51902;DHT22;37929;53.218;6.548;2023-05-01T02:13:26;9.70;99.90
51902;DHT22;37929;53.218;6.548;2023-05-01T02:15:55;9.10;99.90
51902;DHT22;37929;53.218;6.548;2023-05-01T02:18:21;9.10;99.90
51902;DHT22;37929;53.218;6.548;2023-05-01T02:20:47;9.10;99.90
51902;DHT22;37929;53.218;6.548;2023-05-01T02:23:14;9.10;99.90
51902;DHT22;37929;53.218;6.548;2023-05-01T02:25:41;9.10;99.90
51902;DHT22;37929;53.218;6.548;2023-05-01T02:28:11;9.10;99.90
51902;DHT22;37929;53.218;6.548;2023-05-01T02:30:38;9.10;99.90
51902;DHT22;37929;53.218;6.548;2023-05-01T02:33:06;9.40;99.90
51902;DHT22;37929;53.218;6.548;2023-05-01T02:35:41;9.00;99.90
51902;DHT22;37929;53.218;6.548;2023-05-01T02:38:12;9.00;99.90
51902;DHT22;37929;53.218;6.548;2023-05-01T02:40:43;9.10;99.90
51902;DHT22;37929;53.218;6.548;2023-05-01T02:43:12;9.10;99.90
51902;DHT22;37929;53.218;6.548;2023-05-01T02:45:39;9.00;99.90
51902;DHT22;37929;53.218;6.548;2023-05-01T02:48:07;9.00;99.90
51902;DHT22;37929;53.218;6.548;2023-05-01T02:50:35;9.00;99.90
51902;DHT22;37929;53.218;6.548;2023-05-01T02:53:02;9.00;99.90
51902;DHT22;37929;53.218;6.548;2023-05-01T02:55:27;9.00;99.90
51902;DHT22;37929;53.218;6.548;2023-05-01T02:57:57;9.00;99.90
51902;DHT22;37929;53.218;6.548;2023-05-01T03:00:24;9.00;99.90
51902;DHT22;37929;53.218;6.548;2023-05-01T03:02:50;9.00;99.90
51902;DHT22;37929;53.218;6.548;2023-05-01T03:05:16;9.00;99.90
51902;DHT22;37929;53.218;6.548;2023-05-01T03:07:41;8.50;99.90
51902;DHT22;37929;53.218;6.548;2023-05-01T03:10:07;9.00;99.90
51902;DHT22;37929;53.218;6.548;2023-05-01T03:12:33;9.00;99.90
51902;DHT22;37929;53.218;6.548;2023-05-01T03:14:59;9.00;99.90
51902;DHT22;37929;53.218;6.548;2023-05-01T03:17:25;8.90;99.90
51902;DHT22;37929;53.218;6.548;2023-05-01T03:19:51;8.90;99.90
51902;DHT22;37929;53.218;6.548;2023-05-01T03:22:17;8.90;99.90
51902;DHT22;37929;53.218;6.548;2023-05-01T03:24:43;8.90;99.90
51902;DHT22;37929;53.218;6.548;2023-05-01T03:27:09;8.90;99.90
51902;DHT22;37929;53.218;6.548;2023-05-01T03:29:34;8.90;99.90
51902;DHT22;37929;53.218;6.548;2023-05-01T03:32:03;8.90;99.90
51902;DHT22;37929;53.218;6.548;2023-05-01T03:34:28;8.90;99.90
51902;DHT22;37929;53.218;6.548;2023-05-01T03:36:55;8.90;99.90
51902;DHT22;37929;53.218;6.548;2023-05-01T03:39:21;8.90;99.90
51902;DHT22;37929;53.218;6.548;2023-05-01T03:41:47;8.90;99.90
51902;DHT22;37929;53.218;6.548;2023-05-01T03:44:12;8.90;99.90
51902;DHT22;37929;53.218;6.548;2023-05-01T03:46:38;8.90;99.90
51902;DHT22;37929;53.218;6.548;2023-05-01T03:49:04;8.90;99.90
51902;DHT22;37929;53.218;6.548;2023-05-01T03:51:30;8.80;99.90
51902;DHT22;37929;53.218;6.548;2023-05-01T03:53:57;8.80;99.90
51902;DHT22;37929;53.218;6.548;2023-05-01T03:56:26;8.80;99.90
51902;DHT22;37929;53.218;6.548;2023-05-01T03:58:53;8.80;99.90
51902;DHT22;37929;53.218;6.548;2023-05-01T04:01:18;8.80;99.90
51902;DHT22;37929;53.218;6.548;2023-05-01T04:03:45;8.80;99.90
51902;DHT22;37929;53.218;6.548;2023-05-01T04:06:14;8.70;99.90
51902;DHT22;37929;53.218;6.548;2023-05-01T04:08:41;8.70;99.90
51902;DHT22;37929;53.218;6.548;2023-05-01T04:11:07;8.70;99.90
51902;DHT22;37929;53.218;6.548;2023-05-01T04:13:33;8.70;99.90
51902;DHT22;37929;53.218;6.548;2023-05-01T04:15:59;8.70;99.90
51902;DHT22;37929;53.218;6.548;2023-05-01T04:18:25;8.70;99.90
51902;DHT22;37929;53.218;6.548;2023-05-01T04:20:51;8.70;99.90
51902;DHT22;37929;53.218;6.548;2023-05-01T04:23:17;8.70;99.90
51902;DHT22;37929;53.218;6.548;2023-05-01T04:25:42;8.70;99.90
51902;DHT22;37929;53.218;6.548;2023-05-01T04:28:12;8.70;99.90
51902;DHT22;37929;53.218;6.548;2023-05-01T04:30:38;8.70;99.90
51902;DHT22;37929;53.218;6.548;2023-05-01T04:33:04;8.70;99.90
51902;DHT22;37929;53.218;6.548;2023-05-01T04:35:39;8.70;99.90
51902;DHT22;37929;53.218;6.548;2023-05-01T04:38:05;8.70;99.90
51902;DHT22;37929;53.218;6.548;2023-05-01T04:40:31;8.70;99.90
51902;DHT22;37929;53.218;6.548;2023-05-01T04:42:58;8.70;99.90
51902;DHT22;37929;53.218;6.548;2023-05-01T04:45:24;8.60;99.90
51902;DHT22;37929;53.218;6.548;2023-05-01T04:47:49;8.60;99.90
51902;DHT22;37929;53.218;6.548;2023-05-01T04:50:15;8.60;99.90
51902;DHT22;37929;53.218;6.548;2023-05-01T04:52:41;8.80;99.90
51902;DHT22;37929;53.218;6.548;2023-05-01T04:55:07;8.70;99.90
51902;DHT22;37929;53.218;6.548;2023-05-01T04:57:34;8.60;99.90
51902;DHT22;37929;53.218;6.548;2023-05-01T05:00:00;8.70;99.90
51902;DHT22;37929;53.218;6.548;2023-05-01T05:02:26;8.70;99.90
51902;DHT22;37929;53.218;6.548;2023-05-01T05:04:52;8.70;99.90
51902;DHT22;37929;53.218;6.548;2023-05-01T05:07:23;8.80;99.90
51902;DHT22;37929;53.218;6.548;2023-05-01T05:09:49;8.80;99.90
51902;DHT22;37929;53.218;6.548;2023-05-01T05:12:15;8.80;99.90
51902;DHT22;37929;53.218;6.548;2023-05-01T05:14:41;8.80;99.90
51902;DHT22;37929;53.218;6.548;2023-05-01T05:17:07;8.80;99.90
51902;DHT22;37929;53.218;6.548;2023-05-01T05:19:34;8.90;99.90
51902;DHT22;37929;53.218;6.548;2023-05-01T05:22:03;8.90;99.90
51902;DHT22;37929;53.218;6.548;2023-05-01T05:24:29;8.90;99.90
51902;DHT22;37929;53.218;6.548;2023-05-01T05:26:55;8.90;99.90
51902;DHT22;37929;53.218;6.548;2023-05-01T05:29:20;8.90;99.90
51902;DHT22;37929;53.218;6.548;2023-05-01T05:31:46;9.00;99.90
51902;DHT22;37929;53.218;6.548;2023-05-01T05:34:12;9.00;99.90
51902;DHT22;37929;53.218;6.548;2023-05-01T05:36:38;9.00;99.90
51902;DHT22;37929;53.218;6.548;2023-05-01T05:39:04;9.00;99.90
51902;DHT22;37929;53.218;6.548;2023-05-01T05:41:30;9.10;99.90
51902;DHT22;37929;53.218;6.548;2023-05-01T05:43:55;9.00;99.90
51902;DHT22;37929;53.218;6.548;2023-05-01T05:46:21;9.10;99.90
51902;DHT22;37929;53.218;6.548;2023-05-01T05:48:47;9.10;99.90
51902;DHT22;37929;53.218;6.548;2023-05-01T05:51:13;9.70;99.90
51902;DHT22;37929;53.218;6.548;2023-05-01T05:53:39;9.20;99.90
51902;DHT22;37929;53.218;6.548;2023-05-01T05:56:05;9.20;99.90
51902;DHT22;37929;53.218;6.548;2023-05-01T05:58:30;9.20;99.90
51902;DHT22;37929;53.218;6.548;2023-05-01T06:00:56;9.40;99.90
51902;DHT22;37929;53.218;6.548;2023-05-01T06:03:22;9.30;99.90
51902;DHT22;37929;53.218;6.548;2023-05-01T06:05:48;9.30;99.90
51902;DHT22;37929;53.218;6.548;2023-05-01T06:08:14;9.30;99.90
51902;DHT22;37929;53.218;6.548;2023-05-01T06:10:42;9.30;99.90
51902;DHT22;37929;53.218;6.548;2023-05-01T06:13:08;9.30;99.90
51902;DHT22;37929;53.218;6.548;2023-05-01T06:15:38;9.40;99.90
51902;DHT22;37929;53.218;6.548;2023-05-01T06:18:04;9.40;99.90
51902;DHT22;37929;53.218;6.548;2023-05-01T06:20:30;9.40;99.90
51902;DHT22;37929;53.218;6.548;2023-05-01T06:22:56;9.60;99.90
51902;DHT22;37929;53.218;6.548;2023-05-01T06:25:22;9.50;99.90
51902;DHT22;37929;53.218;6.548;2023-05-01T06:27:50;9.50;99.90
51902;DHT22;37929;53.218;6.548;2023-05-01T06:30:16;9.60;99.90
51902;DHT22;37929;53.218;6.548;2023-05-01T06:32:44;9.60;99.90
51902;DHT22;37929;53.218;6.548;2023-05-01T06:35:12;9.70;99.90
51902;DHT22;37929;53.218;6.548;2023-05-01T06:37:38;9.70;99.90
51902;DHT22;37929;53.218;6.548;2023-05-01T06:40:05;9.80;99.90
51902;DHT22;37929;53.218;6.548;2023-05-01T06:42:32;9.80;99.90
51902;DHT22;37929;53.218;6.548;2023-05-01T06:44:57;9.90;99.90
51902;DHT22;37929;53.218;6.548;2023-05-01T06:47:23;9.90;99.90
51902;DHT22;37929;53.218;6.548;2023-05-01T06:49:49;9.90;99.90
51902;DHT22;37929;53.218;6.548;2023-05-01T06:52:14;10.00;99.90
51902;DHT22;37929;53.218;6.548;2023-05-01T06:54:40;10.00;99.90
51902;DHT22;37929;53.218;6.548;2023-05-01T06:57:06;10.00;99.90
51902;DHT22;37929;53.218;6.548;2023-05-01T06:59:31;10.10;99.90
51902;DHT22;37929;53.218;6.548;2023-05-01T07:01:57;10.10;99.90
51902;DHT22;37929;53.218;6.548;2023-05-01T07:04:23;10.20;99.90
51902;DHT22;37929;53.218;6.548;2023-05-01T07:06:48;10.30;99.90
51902;DHT22;37929;53.218;6.548;2023-05-01T07:09:14;10.40;99.90
51902;DHT22;37929;53.218;6.548;2023-05-01T07:11:40;10.40;99.90
51902;DHT22;37929;53.218;6.548;2023-05-01T07:14:09;10.50;99.90
51902;DHT22;37929;53.218;6.548;2023-05-01T07:16:35;10.50;99.90
51902;DHT22;37929;53.218;6.548;2023-05-01T07:19:00;10.60;99.90
51902;DHT22;37929;53.218;6.548;2023-05-01T07:21:26;10.60;99.90
51902;DHT22;37929;53.218;6.548;2023-05-01T07:23:52;10.70;99.90
51902;DHT22;37929;53.218;6.548;2023-05-01T07:26:18;11.20;99.90
51902;DHT22;37929;53.218;6.548;2023-05-01T07:28:44;10.80;99.90
51902;DHT22;37929;53.218;6.548;2023-05-01T07:31:10;10.90;99.90
51902;DHT22;37929;53.218;6.548;2023-05-01T07:33:35;10.90;99.90
51902;DHT22;37929;53.218;6.548;2023-05-01T07:36:01;11.00;99.90
51902;DHT22;37929;53.218;6.548;2023-05-01T07:38:29;11.10;99.90
51902;DHT22;37929;53.218;6.548;2023-05-01T07:40:54;11.20;99.90
51902;DHT22;37929;53.218;6.548;2023-05-01T07:43:21;11.30;99.90
51902;DHT22;37929;53.218;6.548;2023-05-01T07:45:58;11.60;99.90
51902;DHT22;37929;53.218;6.548;2023-05-01T07:48:26;11.50;99.90
51902;DHT22;37929;53.218;6.548;2023-05-01T07:50:52;11.60;99.90
51902;DHT22;37929;53.218;6.548;2023-05-01T07:53:18;11.70;99.90
51902;DHT22;37929;53.218;6.548;2023-05-01T07:55:44;12.00;99.90
51902;DHT22;37929;53.218;6.548;2023-05-01T07:58:10;12.10;99.90
51902;DHT22;37929;53.218;6.548;2023-05-01T08:00:35;12.30;99.90
51902;DHT22;37929;53.218;6.548;2023-05-01T08:03:01;12.50;99.90
51902;DHT22;37929;53.218;6.548;2023-05-01T08:05:27;12.60;99.90
51902;DHT22;37929;53.218;6.548;2023-05-01T08:07:52;12.80;99.90
51902;DHT22;37929;53.218;6.548;2023-05-01T08:10:18;13.00;99.90
51902;DHT22;37929;53.218;6.548;2023-05-01T08:12:44;13.10;99.90
51902;DHT22;37929;53.218;6.548;2023-05-01T08:15:10;13.10;99.90
51902;DHT22;37929;53.218;6.548;2023-05-01T08:17:36;13.20;99.90
51902;DHT22;37929;53.218;6.548;2023-05-01T08:20:02;13.40;99.90
51902;DHT22;37929;53.218;6.548;2023-05-01T08:22:28;13.50;99.90
51902;DHT22;37929;53.218;6.548;2023-05-01T08:24:54;13.60;99.90
51902;DHT22;37929;53.218;6.548;2023-05-01T08:27:20;13.60;99.90
51902;DHT22;37929;53.218;6.548;2023-05-01T08:29:46;13.70;99.90
51902;DHT22;37929;53.218;6.548;2023-05-01T08:32:13;13.80;99.90
51902;DHT22;37929;53.218;6.548;2023-05-01T08:34:39;13.90;99.90
51902;DHT22;37929;53.218;6.548;2023-05-01T08:37:05;14.00;99.90
51902;DHT22;37929;53.218;6.548;2023-05-01T08:39:31;14.10;99.90
51902;DHT22;37929;53.218;6.548;2023-05-01T08:41:57;14.30;99.90
51902;DHT22;37929;53.218;6.548;2023-05-01T08:44:25;14.60;99.90
51902;DHT22;37929;53.218;6.548;2023-05-01T08:47:16;14.70;99.90
51902;DHT22;37929;53.218;6.548;2023-05-01T08:49:43;14.80;99.90
51902;DHT22;37929;53.218;6.548;2023-05-01T08:52:11;15.00;99.90
51902;DHT22;37929;53.218;6.548;2023-05-01T08:54:41;15.10;99.90
51902;DHT22;37929;53.218;6.548;2023-05-01T08:57:09;15.20;99.90
51902;DHT22;37929;53.218;6.548;2023-05-01T08:59:35;15.20;99.90
51902;DHT22;37929;53.218;6.548;2023-05-01T09:02:02;15.30;99.90
51902;DHT22;37929;53.218;6.548;2023-05-01T09:04:37;15.30;99.90
51902;DHT22;37929;53.218;6.548;2023-05-01T09:07:04;15.40;99.90
51902;DHT22;37929;53.218;6.548;2023-05-01T09:09:33;15.40;99.90
51902;DHT22;37929;53.218;6.548;2023-05-01T09:14:45;15.50;99.90
51902;DHT22;37929;53.218;6.548;2023-05-01T09:17:12;15.60;99.90
51902;DHT22;37929;53.218;6.548;2023-05-01T09:19:38;15.70;99.90
51902;DHT22;37929;53.218;6.548;2023-05-01T09:22:05;15.70;99.90
51902;DHT22;37929;53.218;6.548;2023-05-01T09:24:31;15.70;99.90
51902;DHT22;37929;53.218;6.548;2023-05-01T09:26:58;15.80;99.90
51902;DHT22;37929;53.218;6.548;2023-05-01T09:32:17;15.80;99.90
51902;DHT22;37929;53.218;6.548;2023-05-01T09:34:46;15.90;99.90
51902;DHT22;37929;53.218;6.548;2023-05-01T09:37:29;15.80;99.90
51902;DHT22;37929;53.218;6.548;2023-05-01T09:40:11;16.00;99.90
51902;DHT22;37929;53.218;6.548;2023-05-01T09:42:49;16.00;99.90
51902;DHT22;37929;53.218;6.548;2023-05-01T09:45:16;16.10;99.90
51902;DHT22;37929;53.218;6.548;2023-05-01T09:47:46;16.10;99.90
51902;DHT22;37929;53.218;6.548;2023-05-01T09:52:53;16.30;99.90
51902;DHT22;37929;53.218;6.548;2023-05-01T09:55:19;16.30;99.90
51902;DHT22;37929;53.218;6.548;2023-05-01T09:57:46;16.40;99.90
51902;DHT22;37929;53.218;6.548;2023-05-01T10:00:13;16.50;99.90
51902;DHT22;37929;53.218;6.548;2023-05-01T10:02:45;16.60;99.90
51902;DHT22;37929;53.218;6.548;2023-05-01T10:05:13;16.70;99.90
51902;DHT22;37929;53.218;6.548;2023-05-01T10:07:39;16.80;99.90
51902;DHT22;37929;53.218;6.548;2023-05-01T10:10:20;16.90;99.90
51902;DHT22;37929;53.218;6.548;2023-05-01T10:12:47;17.00;99.90
51902;DHT22;37929;53.218;6.548;2023-05-01T10:15:13;17.20;99.90
51902;DHT22;37929;53.218;6.548;2023-05-01T10:17:41;17.30;99.90
51902;DHT22;37929;53.218;6.548;2023-05-01T10:20:08;17.40;99.90
51902;DHT22;37929;53.218;6.548;2023-05-01T10:22:35;17.40;99.90
51902;DHT22;37929;53.218;6.548;2023-05-01T10:25:01;17.30;99.90
51902;DHT22;37929;53.218;6.548;2023-05-01T10:27:29;17.40;99.90
51902;DHT22;37929;53.218;6.548;2023-05-01T10:29:55;17.40;99.90
51902;DHT22;37929;53.218;6.548;2023-05-01T10:32:21;17.50;99.90
51902;DHT22;37929;53.218;6.548;2023-05-01T10:35:06;17.60;99.90
51902;DHT22;37929;53.218;6.548;2023-05-01T10:37:43;17.80;99.90
51902;DHT22;37929;53.218;6.548;2023-05-01T10:43:21;18.10;99.90
51902;DHT22;37929;53.218;6.548;2023-05-01T10:45:53;18.00;99.90
51902;DHT22;37929;53.218;6.548;2023-05-01T10:56:39;18.20;99.90
51902;DHT22;37929;53.218;6.548;2023-05-01T10:59:05;18.20;99.90
51902;DHT22;37929;53.218;6.548;2023-05-01T11:04:02;18.30;99.90
51902;DHT22;37929;53.218;6.548;2023-05-01T11:06:29;18.40;99.90
51902;DHT22;37929;53.218;6.548;2023-05-01T11:08:55;18.40;99.90
51902;DHT22;37929;53.218;6.548;2023-05-01T11:21:48;18.40;99.90
51902;DHT22;37929;53.218;6.548;2023-05-01T11:24:15;18.50;99.90
51902;DHT22;37929;53.218;6.548;2023-05-01T11:26:43;18.60;99.90
51902;DHT22;37929;53.218;6.548;2023-05-01T11:29:10;18.70;99.90
51902;DHT22;37929;53.218;6.548;2023-05-01T11:31:37;18.80;99.90
51902;DHT22;37929;53.218;6.548;2023-05-01T11:34:03;18.90;99.90
51902;DHT22;37929;53.218;6.548;2023-05-01T11:36:49;19.10;99.90
51902;DHT22;37929;53.218;6.548;2023-05-01T11:39:16;19.10;99.90
51902;DHT22;37929;53.218;6.548;2023-05-01T11:41:42;19.20;99.90
51902;DHT22;37929;53.218;6.548;2023-05-01T11:44:11;19.30;99.90
51902;DHT22;37929;53.218;6.548;2023-05-01T11:46:37;19.30;99.90
51902;DHT22;37929;53.218;6.548;2023-05-01T11:49:03;19.40;99.90
51902;DHT22;37929;53.218;6.548;2023-05-01T11:51:29;19.20;99.90
51902;DHT22;37929;53.218;6.548;2023-05-01T11:54:03;19.20;99.90
51902;DHT22;37929;53.218;6.548;2023-05-01T11:56:29;19.10;99.90
51902;DHT22;37929;53.218;6.548;2023-05-01T11:58:57;19.10;99.90
51902;DHT22;37929;53.218;6.548;2023-05-01T12:01:37;19.00;99.90
51902;DHT22;37929;53.218;6.548;2023-05-01T12:04:04;19.00;99.90
51902;DHT22;37929;53.218;6.548;2023-05-01T12:09:18;18.80;99.90
51902;DHT22;37929;53.218;6.548;2023-05-01T12:11:46;18.80;99.90
51902;DHT22;37929;53.218;6.548;2023-05-01T12:14:13;18.70;99.90
51902;DHT22;37929;53.218;6.548;2023-05-01T12:16:40;18.70;99.90
51902;DHT22;37929;53.218;6.548;2023-05-01T12:19:07;18.70;99.90
51902;DHT22;37929;53.218;6.548;2023-05-01T12:21:34;18.70;99.90
51902;DHT22;37929;53.218;6.548;2023-05-01T12:24:12;18.80;99.90
51902;DHT22;37929;53.218;6.548;2023-05-01T12:26:41;18.80;99.90
51902;DHT22;37929;53.218;6.548;2023-05-01T12:29:07;18.90;99.90
51902;DHT22;37929;53.218;6.548;2023-05-01T12:31:44;19.00;99.90
51902;DHT22;37929;53.218;6.548;2023-05-01T12:34:10;18.90;99.90
51902;DHT22;37929;53.218;6.548;2023-05-01T12:36:37;19.00;99.90
51902;DHT22;37929;53.218;6.548;2023-05-01T12:39:08;19.00;99.90
51902;DHT22;37929;53.218;6.548;2023-05-01T12:41:42;19.00;99.90
51902;DHT22;37929;53.218;6.548;2023-05-01T12:44:22;18.90;99.90
51902;DHT22;37929;53.218;6.548;2023-05-01T12:49:22;18.80;99.90
51902;DHT22;37929;53.218;6.548;2023-05-01T12:51:50;18.80;99.90
51902;DHT22;37929;53.218;6.548;2023-05-01T12:54:23;18.80;99.90
51902;DHT22;37929;53.218;6.548;2023-05-01T12:56:50;18.90;99.90
51902;DHT22;37929;53.218;6.548;2023-05-01T12:59:20;18.80;99.90
51902;DHT22;37929;53.218;6.548;2023-05-01T13:01:47;18.70;99.90
51902;DHT22;37929;53.218;6.548;2023-05-01T13:04:20;18.70;99.90
51902;DHT22;37929;53.218;6.548;2023-05-01T13:06:46;18.70;99.90
51902;DHT22;37929;53.218;6.548;2023-05-01T13:09:12;18.60;99.90
51902;DHT22;37929;53.218;6.548;2023-05-01T13:11:40;18.50;99.90
51902;DHT22;37929;53.218;6.548;2023-05-01T13:14:07;18.50;99.90
51902;DHT22;37929;53.218;6.548;2023-05-01T13:16:45;18.50;99.90
51902;DHT22;37929;53.218;6.548;2023-05-01T13:19:12;18.40;99.90
51902;DHT22;37929;53.218;6.548;2023-05-01T13:21:48;18.40;99.90
51902;DHT22;37929;53.218;6.548;2023-05-01T13:24:14;18.40;99.90
51902;DHT22;37929;53.218;6.548;2023-05-01T13:26:40;18.30;99.90
51902;DHT22;37929;53.218;6.548;2023-05-01T13:29:06;18.20;99.90
51902;DHT22;37929;53.218;6.548;2023-05-01T13:31:42;18.10;99.90
51902;DHT22;37929;53.218;6.548;2023-05-01T13:34:08;18.10;99.90
51902;DHT22;37929;53.218;6.548;2023-05-01T13:36:34;18.20;99.90
51902;DHT22;37929;53.218;6.548;2023-05-01T13:39:00;18.20;99.90
51902;DHT22;37929;53.218;6.548;2023-05-01T13:41:27;18.20;99.90
51902;DHT22;37929;53.218;6.548;2023-05-01T13:43:54;18.20;99.90
51902;DHT22;37929;53.218;6.548;2023-05-01T13:46:21;18.20;99.90
51902;DHT22;37929;53.218;6.548;2023-05-01T13:48:47;18.00;99.90
51902;DHT22;37929;53.218;6.548;2023-05-01T13:51:19;18.00;99.90
51902;DHT22;37929;53.218;6.548;2023-05-01T13:53:45;17.90;99.90
51902;DHT22;37929;53.218;6.548;2023-05-01T13:56:10;17.80;99.90
51902;DHT22;37929;53.218;6.548;2023-05-01T13:58:40;17.70;99.90
51902;DHT22;37929;53.218;6.548;2023-05-01T14:01:14;17.70;99.90
51902;DHT22;37929;53.218;6.548;2023-05-01T14:03:41;17.60;99.90
51902;DHT22;37929;53.218;6.548;2023-05-01T14:06:17;17.60;99.90
51902;DHT22;37929;53.218;6.548;2023-05-01T14:08:45;17.50;99.90
51902;DHT22;37929;53.218;6.548;2023-05-01T14:11:11;17.40;99.90
51902;DHT22;37929;53.218;6.548;2023-05-01T14:13:42;17.40;99.90
51902;DHT22;37929;53.218;6.548;2023-05-01T14:16:09;17.40;99.90
51902;DHT22;37929;53.218;6.548;2023-05-01T14:18:43;17.30;99.90
51902;DHT22;37929;53.218;6.548;2023-05-01T14:21:09;17.40;99.90
51902;DHT22;37929;53.218;6.548;2023-05-01T14:23:35;17.20;99.90
51902;DHT22;37929;53.218;6.548;2023-05-01T14:26:03;17.30;99.90
51902;DHT22;37929;53.218;6.548;2023-05-01T14:28:30;17.20;99.90
51902;DHT22;37929;53.218;6.548;2023-05-01T14:30:56;17.20;99.90
51902;DHT22;37929;53.218;6.548;2023-05-01T14:33:21;17.20;99.90
51902;DHT22;37929;53.218;6.548;2023-05-01T14:35:51;17.20;99.90
51902;DHT22;37929;53.218;6.548;2023-05-01T14:38:18;17.20;99.90
51902;DHT22;37929;53.218;6.548;2023-05-01T14:40:44;17.20;99.90
51902;DHT22;37929;53.218;6.548;2023-05-01T14:43:16;17.10;99.90
51902;DHT22;37929;53.218;6.548;2023-05-01T14:45:44;17.10;99.90
51902;DHT22;37929;53.218;6.548;2023-05-01T14:48:21;17.10;99.90
51902;DHT22;37929;53.218;6.548;2023-05-01T14:50:48;17.00;99.90
51902;DHT22;37929;53.218;6.548;2023-05-01T14:53:14;17.00;99.90
51902;DHT22;37929;53.218;6.548;2023-05-01T14:55:41;16.90;99.90
51902;DHT22;37929;53.218;6.548;2023-05-01T14:58:07;16.90;99.90
51902;DHT22;37929;53.218;6.548;2023-05-01T15:00:32;16.90;99.90
51902;DHT22;37929;53.218;6.548;2023-05-01T15:02:59;17.00;99.90
51902;DHT22;37929;53.218;6.548;2023-05-01T15:05:25;16.90;99.90
51902;DHT22;37929;53.218;6.548;2023-05-01T15:07:53;16.90;99.90
51902;DHT22;37929;53.218;6.548;2023-05-01T15:10:20;17.00;99.90
51902;DHT22;37929;53.218;6.548;2023-05-01T15:12:48;17.00;99.90
51902;DHT22;37929;53.218;6.548;2023-05-01T15:15:14;16.90;99.90
51902;DHT22;37929;53.218;6.548;2023-05-01T15:17:40;16.90;99.90
51902;DHT22;37929;53.218;6.548;2023-05-01T15:20:06;16.90;99.90
51902;DHT22;37929;53.218;6.548;2023-05-01T15:22:31;17.00;99.90
51902;DHT22;37929;53.218;6.548;2023-05-01T15:24:57;16.90;99.90
51902;DHT22;37929;53.218;6.548;2023-05-01T15:27:23;16.90;99.90
51902;DHT22;37929;53.218;6.548;2023-05-01T15:29:49;16.90;99.90
51902;DHT22;37929;53.218;6.548;2023-05-01T15:32:15;16.80;99.90
51902;DHT22;37929;53.218;6.548;2023-05-01T15:34:41;16.80;99.90
51902;DHT22;37929;53.218;6.548;2023-05-01T15:37:07;16.80;99.90
51902;DHT22;37929;53.218;6.548;2023-05-01T15:39:33;16.70;99.90
51902;DHT22;37929;53.218;6.548;2023-05-01T15:41:59;16.70;99.90
51902;DHT22;37929;53.218;6.548;2023-05-01T15:44:25;16.60;99.90
51902;DHT22;37929;53.218;6.548;2023-05-01T15:46:53;16.60;99.90
51902;DHT22;37929;53.218;6.548;2023-05-01T15:49:19;16.60;99.90
51902;DHT22;37929;53.218;6.548;2023-05-01T15:51:45;16.50;99.90
51902;DHT22;37929;53.218;6.548;2023-05-01T15:54:10;16.60;99.90
51902;DHT22;37929;53.218;6.548;2023-05-01T15:56:36;16.50;99.90
51902;DHT22;37929;53.218;6.548;2023-05-01T15:59:06;16.60;99.90
51902;DHT22;37929;53.218;6.548;2023-05-01T16:01:32;16.60;99.90
51902;DHT22;37929;53.218;6.548;2023-05-01T16:03:59;16.60;99.90
51902;DHT22;37929;53.218;6.548;2023-05-01T16:06:25;16.60;99.90
51902;DHT22;37929;53.218;6.548;2023-05-01T16:08:53;16.50;99.90
51902;DHT22;37929;53.218;6.548;2023-05-01T16:11:18;16.50;99.90
51902;DHT22;37929;53.218;6.548;2023-05-01T16:13:44;16.40;99.90
51902;DHT22;37929;53.218;6.548;2023-05-01T16:16:55;16.40;99.90
51902;DHT22;37929;53.218;6.548;2023-05-01T16:19:21;16.30;99.90
51902;DHT22;37929;53.218;6.548;2023-05-01T16:21:47;16.20;99.90
51902;DHT22;37929;53.218;6.548;2023-05-01T16:24:13;16.20;99.90
51902;DHT22;37929;53.218;6.548;2023-05-01T16:26:39;16.20;99.90
51902;DHT22;37929;53.218;6.548;2023-05-01T16:29:06;16.20;99.90
51902;DHT22;37929;53.218;6.548;2023-05-01T16:31:40;16.30;99.90